Time;durP1;ratioP1;P1;durP2;ratioP2;P2;SDS_P1;SDS_P2;PMS_P1;PMS_P2;Temp;Humidity;BMP_temperature;BMP_pressure;BME280_temperature;BME280_humidity;BME280_pressure;Samples;Min_cycle;Max_cycle;Signal;HPM_P1;HPM_P2
2022/02/22 00:01:10;;;;;;;46.00;4.28;;;;;;;4.97;84.72;101399.19;4964166;28;20048;-75
2022/02/22 00:03:36;;;;;;;45.17;6.55;;;;;;;5.02;84.93;101404.00;4983106;28;20037;-79
2022/02/22 00:06:03;;;;;;;58.17;5.95;;;;;;;5.02;84.75;101415.09;4985507;28;20030;-78
2022/02/22 00:08:29;;;;;;;43.08;6.10;;;;;;;4.91;85.23;101409.06;4966801;28;20045;-79
2022/02/22 00:10:54;;;;;;;46.20;5.28;;;;;;;4.94;85.18;101424.28;4999670;28;20041;-80
2022/02/22 00:13:20;;;;;;;44.95;6.07;;;;;;;4.96;85.11;101412.16;5001574;28;20046;-80
2022/02/22 00:15:46;;;;;;;62.00;5.35;;;;;;;4.99;84.99;101420.47;5003189;28;20042;-77
2022/02/22 00:18:11;;;;;;;47.53;4.72;;;;;;;4.97;85.14;101412.03;4992121;28;20041;-80
2022/02/22 00:20:37;;;;;;;43.55;6.00;;;;;;;5.03;84.85;101421.91;4987299;28;20066;-82
2022/02/22 00:23:05;;;;;;;41.40;4.35;;;;;;;4.99;84.55;101427.34;4987312;28;20061;-82
2022/02/22 00:25:31;;;;;;;35.83;4.93;;;;;;;5.07;84.84;101427.66;4987351;28;20045;-77
2022/02/22 00:27:56;;;;;;;50.38;5.05;;;;;;;5.03;84.85;101442.47;4974707;28;20034;-79
2022/02/22 00:30:22;;;;;;;44.90;5.30;;;;;;;5.00;85.24;101442.66;4968985;28;20034;-79
2022/02/22 00:32:47;;;;;;;45.97;5.25;;;;;;;4.90;85.54;101448.53;4974050;28;20030;-79
2022/02/22 00:35:13;;;;;;;45.17;5.63;;;;;;;4.93;85.25;101454.28;4986264;28;20077;-82
2022/02/22 00:37:39;;;;;;;46.25;6.35;;;;;;;4.95;85.19;101454.19;4986639;28;20042;-79
2022/02/22 00:40:06;;;;;;;51.53;5.75;;;;;;;4.91;85.28;101452.75;4986166;28;20041;-81
2022/02/22 00:42:32;;;;;;;54.00;5.57;;;;;;;5.00;84.91;101460.66;4983610;28;20034;-80
2022/02/22 00:44:57;;;;;;;37.90;5.60;;;;;;;4.93;85.02;101463.75;4981761;28;20038;-78
2022/02/22 00:47:23;;;;;;;51.63;5.07;;;;;;;4.95;85.11;101460.13;4980886;28;20121;-78
2022/02/22 00:49:48;;;;;;;50.00;6.00;;;;;;;4.91;85.01;101478.44;4999756;28;20041;-78
2022/02/22 00:52:14;;;;;;;35.35;5.28;;;;;;;5.00;84.89;101467.56;5005069;28;20030;-77
2022/02/22 00:54:39;;;;;;;56.35;6.22;;;;;;;4.99;85.06;101474.44;4984375;28;20038;-79
2022/02/22 00:57:05;;;;;;;55.30;6.15;;;;;;;4.92;84.59;101467.25;4984917;28;20460;-79
2022/02/22 00:59:30;;;;;;;44.20;5.80;;;;;;;4.99;84.70;101465.91;5002239;28;20042;-80
2022/02/22 01:01:56;;;;;;;45.75;4.95;;;;;;;4.94;84.38;101473.13;4989112;28;20081;-79
2022/02/22 01:04:21;;;;;;;58.67;6.22;;;;;;;4.94;84.71;101466.22;5000776;28;20037;-79
2022/02/22 01:06:47;;;;;;;43.80;5.15;;;;;;;4.78;84.86;101463.03;4986564;28;20057;-80
2022/02/22 01:09:14;;;;;;;37.55;6.15;;;;;;;4.85;84.65;101469.41;4987635;28;20034;-79
2022/02/22 01:11:40;;;;;;;40.33;4.28;;;;;;;4.72;85.32;101471.16;5005383;28;20030;-79
2022/02/22 01:14:05;;;;;;;53.42;5.38;;;;;;;4.78;85.71;101483.56;4984856;28;20480;-79
2022/02/22 01:16:31;;;;;;;40.72;5.30;;;;;;;4.79;85.29;101483.47;4986169;28;20061;-78
2022/02/22 01:18:56;;;;;;;48.85;4.97;;;;;;;4.82;85.59;101473.00;4984882;28;20046;-80
2022/02/22 01:21:22;;;;;;;36.60;4.85;;;;;;;4.80;85.43;101468.88;4985441;28;20034;-79
2022/02/22 01:23:47;;;;;;;47.30;4.55;;;;;;;4.76;85.59;101475.97;4984153;28;20038;-79
2022/02/22 01:26:13;;;;;;;44.25;4.57;;;;;;;4.64;86.39;101476.78;4999808;28;20045;-78
2022/02/22 01:28:38;;;;;;;51.05;5.53;;;;;;;4.75;86.08;101491.50;4986237;28;20563;-80
2022/02/22 01:31:04;;;;;;;40.65;5.30;;;;;;;4.67;86.56;101494.56;4967764;28;20034;-80
2022/02/22 01:33:29;;;;;;;42.30;5.18;;;;;;;4.67;86.40;101504.81;4987068;28;20038;-78
2022/02/22 01:35:55;;;;;;;56.33;5.88;;;;;;;4.77;86.05;101510.22;4988188;28;20120;-79
2022/02/22 01:38:20;;;;;;;37.25;5.28;;;;;;;4.63;86.47;101516.22;4983777;28;20096;-79
2022/02/22 01:40:46;;;;;;;47.45;5.43;;;;;;;4.68;86.54;101521.91;4987831;28;20497;-79
2022/02/22 01:43:11;;;;;;;50.47;4.82;;;;;;;4.63;87.04;101521.38;4989969;28;20431;-79
2022/02/22 01:45:37;;;;;;;36.47;5.57;;;;;;;4.62;86.81;101530.00;5003041;28;20026;-79
2022/02/22 01:48:03;;;;;;;59.42;5.80;;;;;;;4.59;87.12;101523.31;4983927;28;20436;-80
2022/02/22 01:50:30;;;;;;;47.97;5.90;;;;;;;4.66;87.21;101529.72;4982464;28;20058;-80
2022/02/22 01:52:55;;;;;;;46.35;6.20;;;;;;;4.64;87.54;101523.84;4998973;28;20042;-80
2022/02/22 01:55:21;;;;;;;52.25;5.50;;;;;;;4.56;87.54;101532.97;4986725;28;20031;-79
2022/02/22 01:57:46;;;;;;;50.75;4.82;;;;;;;4.57;87.90;101544.91;4983551;28;20496;-80
2022/02/22 02:00:13;;;;;;;48.83;5.40;;;;;;;4.56;87.81;101540.66;5001522;28;20034;-79
2022/02/22 02:02:40;;;;;;;55.03;6.70;;;;;;;4.63;87.79;101535.06;4984041;28;20030;-80
2022/02/22 02:05:06;;;;;;;54.22;4.95;;;;;;;4.56;88.02;101538.09;4997861;28;20141;-79
2022/02/22 02:07:32;;;;;;;52.00;5.07;;;;;;;4.51;87.88;101540.97;4968566;28;20832;-80
2022/02/22 02:09:58;;;;;;;29.02;4.68;;;;;;;4.41;88.46;101547.63;4982647;28;20442;-80
2022/02/22 02:12:23;;;;;;;43.60;5.03;;;;;;;4.43;88.14;101541.47;4980874;28;20556;-80
2022/02/22 02:14:49;;;;;;;46.50;4.97;;;;;;;4.37;88.18;101539.31;4999347;28;20042;-79
2022/02/22 02:17:14;;;;;;;58.25;5.10;;;;;;;4.40;88.78;101546.78;4982489;28;20071;-80
2022/02/22 02:19:41;;;;;;;49.70;6.05;;;;;;;4.26;88.84;101550.25;4981565;28;20085;-79
2022/02/22 02:22:08;;;;;;;38.67;4.65;;;;;;;4.36;88.81;101549.66;4998903;28;20145;-80
2022/02/22 02:24:34;;;;;;;42.10;4.70;;;;;;;4.35;88.44;101559.13;4980140;28;20076;-80
2022/02/22 02:26:59;;;;;;;53.75;5.70;;;;;;;4.25;88.70;101551.16;4996738;28;20042;-80
2022/02/22 02:29:27;;;;;;;53.58;6.63;;;;;;;4.26;88.69;101557.13;4985376;28;20405;-80
2022/02/22 02:31:54;;;;;;;44.20;4.88;;;;;;;4.17;88.84;101557.69;4983143;28;20030;-80
2022/02/22 02:34:29;;;;;;;51.28;5.03;;;;;;;4.15;89.14;101559.53;4995476;28;20030;-79
2022/02/22 02:36:55;;;;;;;59.72;6.38;;;;;;;4.12;89.35;101552.03;4983936;28;20037;-80
2022/02/22 02:39:21;;;;;;;49.55;6.53;;;;;;;4.12;88.61;101540.00;4981292;28;20035;-80
2022/02/22 02:41:47;;;;;;;38.28;5.00;;;;;;;4.12;89.29;101545.13;4980023;28;20041;-79
2022/02/22 02:44:15;;;;;;;51.65;6.93;;;;;;;3.97;89.65;101548.66;4981902;28;20049;-78
2022/02/22 02:46:41;;;;;;;40.35;5.72;;;;;;;3.96;89.56;101547.84;4997685;28;20031;-79
2022/02/22 02:49:08;;;;;;;49.22;6.15;;;;;;;3.88;89.94;101544.91;4968744;28;20653;-79
2022/02/22 02:51:34;;;;;;;39.40;5.18;;;;;;;3.75;90.51;101549.97;4982002;28;20084;-79
2022/02/22 02:54:00;;;;;;;45.90;4.80;;;;;;;3.75;90.76;101549.13;4999205;28;20030;-79
2022/02/22 02:56:26;;;;;;;46.05;4.95;;;;;;;3.84;90.57;101553.72;4995640;28;20113;-80
2022/02/22 02:58:54;;;;;;;48.67;4.75;;;;;;;3.78;90.97;101559.22;5003023;28;20476;-79
2022/02/22 03:01:20;;;;;;;35.25;5.38;;;;;;;3.66;91.10;101550.53;4967253;28;20189;-80
2022/02/22 03:03:46;;;;;;;41.22;5.38;;;;;;;3.64;91.80;101557.50;4965791;28;20524;-79
2022/02/22 03:06:11;;;;;;;42.75;5.63;;;;;;;3.53;91.77;101553.00;4998745;28;20034;-78
2022/02/22 03:08:37;;;;;;;47.15;4.57;;;;;;;3.60;92.25;101550.88;4995584;28;20066;-79
2022/02/22 03:11:03;;;;;;;43.72;5.15;;;;;;;3.45;92.57;101557.78;5000941;28;20030;-80
2022/02/22 03:13:28;;;;;;;52.60;6.68;;;;;;;3.41;92.39;101551.16;4996133;28;20030;-77
2022/02/22 03:15:53;;;;;;;44.03;6.53;;;;;;;3.61;92.56;101548.22;4994555;28;20051;-80
2022/02/22 03:18:19;;;;;;;37.97;5.25;;;;;;;3.46;92.16;101546.59;4996530;28;20031;-80
2022/02/22 03:20:44;;;;;;;56.65;6.53;;;;;;;3.46;92.83;101554.28;4981004;28;20093;-79
2022/02/22 03:23:10;;;;;;;48.15;5.25;;;;;;;3.50;92.83;101566.84;5000039;28;20097;-81
2022/02/22 03:25:35;;;;;;;54.00;5.68;;;;;;;3.47;92.73;101569.59;5001252;28;20030;-81
2022/02/22 03:28:04;;;;;;;42.35;6.95;;;;;;;3.54;92.45;101585.41;4989644;28;20286;-79
2022/02/22 03:30:32;;;;;;;49.33;5.68;;;;;;;3.52;92.40;101587.25;4988926;28;20034;-79
2022/02/22 03:32:58;;;;;;;46.35;5.03;;;;;;;3.50;92.76;101584.81;4989556;28;20038;-80
2022/02/22 03:35:24;;;;;;;34.00;5.43;;;;;;;3.45;93.00;101593.69;4988249;28;20404;-79
2022/02/22 03:37:49;;;;;;;47.53;5.32;;;;;;;3.46;93.49;101583.31;4986895;28;20034;-79
2022/02/22 03:40:15;;;;;;;48.72;5.00;;;;;;;3.55;93.49;101578.56;5002474;28;20057;-78
2022/02/22 03:42:42;;;;;;;46.63;6.63;;;;;;;3.48;92.77;101583.22;4986141;28;20100;-80
2022/02/22 03:45:10;;;;;;;41.00;5.15;;;;;;;3.44;93.29;101584.31;4990817;28;20038;-79
2022/02/22 03:47:37;;;;;;;49.80;5.38;;;;;;;3.42;93.47;101599.78;4987753;28;20057;-80
2022/02/22 03:50:04;;;;;;;41.50;6.43;;;;;;;3.44;93.98;101592.84;5000192;28;20049;-79
2022/02/22 03:52:30;;;;;;;48.15;5.53;;;;;;;3.48;93.77;101596.06;4990489;28;20463;-79
2022/02/22 03:54:56;;;;;;;52.28;6.75;;;;;;;3.50;93.36;101586.53;4984410;28;20405;-79
2022/02/22 03:57:21;;;;;;;39.22;4.90;;;;;;;3.42;93.58;101599.78;4988588;28;20030;-81
2022/02/22 03:59:47;;;;;;;48.95;4.80;;;;;;;3.38;93.95;101600.09;5002372;28;20417;-80
2022/02/22 04:02:12;;;;;;;44.97;7.15;;;;;;;3.29;94.16;101593.75;5004970;28;20088;-78
2022/02/22 04:04:38;;;;;;;51.88;5.78;;;;;;;3.33;94.48;101602.09;4984163;28;20061;-79
2022/02/22 04:07:03;;;;;;;48.58;7.22;;;;;;;3.26;94.62;101599.88;4987827;28;20439;-79
2022/02/22 04:09:29;;;;;;;47.55;5.90;;;;;;;3.47;94.40;101599.53;5001107;28;20026;-77
2022/02/22 04:11:54;;;;;;;55.95;5.18;;;;;;;3.35;94.26;101595.13;4968480;28;20034;-79
2022/02/22 04:14:20;;;;;;;51.70;5.40;;;;;;;3.31;94.50;101607.28;4984196;28;20246;-80
2022/02/22 04:16:45;;;;;;;52.28;5.40;;;;;;;3.28;94.77;101612.63;4986475;28;20370;-79
2022/02/22 04:19:10;;;;;;;59.67;5.05;;;;;;;3.30;94.53;101621.84;4986204;28;20065;-78
2022/02/22 04:21:36;;;;;;;47.38;6.07;;;;;;;3.31;94.78;101622.66;5002069;28;20030;-80
2022/02/22 04:24:02;;;;;;;56.00;6.13;;;;;;;3.26;94.95;101615.25;4982873;28;20041;-80
2022/02/22 04:26:28;;;;;;;44.15;5.22;;;;;;;3.34;94.59;101619.13;4968807;28;20133;-80
2022/02/22 04:28:55;;;;;;;44.72;4.90;;;;;;;3.34;94.99;101611.44;4985246;28;20092;-80
2022/02/22 04:31:21;;;;;;;54.95;8.80;;;;;;;3.30;94.85;101626.16;4998879;28;20073;-80
2022/02/22 04:33:46;;;;;;;112.57;25.98;;;;;;;3.20;95.02;101623.31;4984406;28;20066;-80
2022/02/22 04:36:12;;;;;;;69.60;18.27;;;;;;;3.25;94.92;101628.16;4968132;28;20048;-79
2022/02/22 04:38:37;;;;;;;63.60;12.48;;;;;;;3.18;94.89;101625.09;4969082;28;20423;-80
2022/02/22 04:41:03;;;;;;;52.42;8.90;;;;;;;3.23;95.10;101623.13;5001477;28;20452;-79
2022/02/22 04:43:29;;;;;;;45.65;6.90;;;;;;;3.24;95.35;101621.38;4971019;28;20112;-80
2022/02/22 04:45:54;;;;;;;44.85;8.68;;;;;;;3.17;94.97;101635.47;4967938;28;20034;-80
2022/02/22 04:48:20;;;;;;;53.28;9.25;;;;;;;3.15;95.49;101633.00;4989297;28;20518;-79
2022/02/22 04:50:45;;;;;;;45.58;7.47;;;;;;;3.06;95.66;101631.78;4983518;28;20030;-80
2022/02/22 04:53:11;;;;;;;57.25;10.45;;;;;;;3.12;95.42;101638.28;5002512;28;20042;-80
2022/02/22 04:55:36;;;;;;;51.17;7.57;;;;;;;3.09;95.55;101641.84;4985525;28;20030;-79
2022/02/22 04:58:02;;;;;;;49.22;5.10;;;;;;;3.14;95.41;101641.59;4989503;28;20046;-79
2022/02/22 05:00:27;;;;;;;49.25;6.55;;;;;;;3.05;95.82;101644.66;5007713;28;20041;-80
2022/02/22 05:02:53;;;;;;;49.85;9.15;;;;;;;3.21;95.85;101649.75;4991295;28;20078;-80
2022/02/22 05:05:18;;;;;;;49.40;7.07;;;;;;;3.07;95.32;101650.53;4967689;28;20041;-79
2022/02/22 05:07:44;;;;;;;43.60;6.13;;;;;;;2.96;95.96;101640.91;4998357;28;20029;-79
2022/02/22 05:10:09;;;;;;;49.28;7.43;;;;;;;3.01;95.72;101644.00;4968146;28;20035;-81
2022/02/22 05:12:35;;;;;;;51.88;9.90;;;;;;;3.07;96.15;101655.66;4967176;28;20030;-80
2022/02/22 05:15:01;;;;;;;57.15;8.80;;;;;;;3.03;96.53;101643.94;5001208;28;20038;-80
2022/02/22 05:17:26;;;;;;;61.67;15.65;;;;;;;2.99;96.30;101648.41;4983424;28;20042;-80
2022/02/22 05:19:52;;;;;;;60.70;9.93;;;;;;;2.91;96.27;101648.00;4997334;28;20034;-79
2022/02/22 05:22:17;;;;;;;41.67;5.05;;;;;;;2.90;96.59;101647.19;4983277;28;20061;-80
2022/02/22 05:24:43;;;;;;;43.72;5.65;;;;;;;2.90;96.19;101643.78;4984352;28;20030;-80
2022/02/22 05:27:08;;;;;;;53.65;6.63;;;;;;;2.92;96.13;101644.53;4987051;28;20034;-79
2022/02/22 05:29:34;;;;;;;45.92;5.80;;;;;;;2.95;96.43;101644.34;4988120;28;20026;-81
2022/02/22 05:32:00;;;;;;;45.20;7.15;;;;;;;2.92;96.13;101637.69;4987093;28;20045;-79
2022/02/22 05:34:27;;;;;;;47.03;5.32;;;;;;;2.82;96.77;101639.09;4966805;28;20030;-79
2022/02/22 05:36:53;;;;;;;36.90;5.20;;;;;;;2.91;97.13;101636.00;4998021;28;20038;-79
2022/02/22 05:39:18;;;;;;;38.47;5.05;;;;;;;2.83;96.77;101632.25;4964185;28;20088;-81
2022/02/22 05:41:44;;;;;;;41.30;5.43;;;;;;;2.92;97.05;101644.53;4985036;28;20025;-79
2022/02/22 05:44:09;;;;;;;40.97;6.03;;;;;;;2.83;97.12;101645.88;4968196;28;20567;-79
2022/02/22 05:46:35;;;;;;;49.17;6.47;;;;;;;2.84;96.80;101652.63;4999838;28;20038;-80
2022/02/22 05:49:00;;;;;;;39.80;6.28;;;;;;;2.83;96.88;101647.63;4998768;28;20038;-79
2022/02/22 05:51:26;;;;;;;40.97;6.07;;;;;;;2.87;96.68;101662.72;4971362;28;20025;-79
2022/02/22 05:53:51;;;;;;;40.63;6.20;;;;;;;2.77;96.88;101666.72;4980027;28;20047;-79
2022/02/22 05:56:18;;;;;;;53.97;10.07;;;;;;;2.67;97.44;101665.53;4986093;28;20153;-80
2022/02/22 05:58:44;;;;;;;47.58;9.30;;;;;;;2.63;97.81;101671.75;5003257;28;20045;-79
2022/02/22 06:01:09;;;;;;;33.88;5.75;;;;;;;2.68;97.77;101680.84;4969013;28;20038;-80
2022/02/22 06:03:35;;;;;;;48.47;6.60;;;;;;;2.67;97.55;101675.78;4982070;28;20034;-79
2022/02/22 06:06:00;;;;;;;36.10;5.13;;;;;;;2.61;97.85;101676.94;5004006;28;20049;-80
2022/02/22 06:08:27;;;;;;;46.20;5.85;;;;;;;2.62;97.63;101672.66;4986009;28;20041;-80
2022/02/22 06:10:53;;;;;;;57.97;6.15;;;;;;;2.58;97.67;101674.56;4985023;28;20022;-80
2022/02/22 06:13:19;;;;;;;52.22;7.43;;;;;;;2.59;97.74;101683.88;4991394;28;20037;-80
2022/02/22 06:15:44;;;;;;;47.90;7.57;;;;;;;2.62;97.70;101685.44;4969548;28;20045;-80
2022/02/22 06:18:10;;;;;;;43.33;6.47;;;;;;;2.53;97.60;101682.47;4981703;28;20031;-79
2022/02/22 06:20:35;;;;;;;60.17;8.63;;;;;;;2.53;97.68;101687.59;4968618;28;20929;-79
2022/02/22 06:23:02;;;;;;;62.78;7.78;;;;;;;2.44;97.94;101692.41;4999528;28;20259;-80
2022/02/22 06:25:30;;;;;;;49.08;8.43;;;;;;;2.48;98.22;101691.31;4965539;28;20038;-79
2022/02/22 06:27:56;;;;;;;66.28;9.38;;;;;;;2.48;97.85;101699.81;4984053;28;20407;-77
2022/02/22 06:30:22;;;;;;;44.75;7.45;;;;;;;2.43;98.10;101695.84;4984874;28;20027;-80
2022/02/22 06:32:49;;;;;;;55.28;9.38;;;;;;;2.48;97.86;101704.13;4985068;28;20026;-80
2022/02/22 06:35:16;;;;;;;47.85;8.50;;;;;;;2.52;97.95;101703.03;4980985;28;20040;-79
2022/02/22 06:37:42;;;;;;;54.53;10.30;;;;;;;2.42;98.02;101691.66;4983473;28;20097;-80
2022/02/22 06:40:08;;;;;;;51.85;11.05;;;;;;;2.42;98.11;101692.47;5003408;28;20447;-79
2022/02/22 06:42:35;;;;;;;47.05;9.90;;;;;;;2.48;97.95;101706.69;5001757;28;20033;-81
2022/02/22 06:45:00;;;;;;;56.15;10.52;;;;;;;2.48;97.97;101715.19;4984047;28;20468;-79
2022/02/22 06:47:26;;;;;;;40.65;8.32;;;;;;;2.55;98.21;101709.75;5002024;28;20041;-79
2022/02/22 06:49:51;;;;;;;41.08;7.72;;;;;;;2.50;97.95;101710.00;4968323;28;20030;-80
2022/02/22 06:52:18;;;;;;;41.25;8.57;;;;;;;2.46;97.90;101713.63;4982266;28;20038;-80
2022/02/22 06:54:45;;;;;;;41.70;6.95;;;;;;;2.42;97.95;101715.50;4985421;28;20354;-80
2022/02/22 06:57:11;;;;;;;55.63;7.68;;;;;;;2.41;98.04;101710.47;5004405;28;20030;-80
2022/02/22 06:59:36;;;;;;;43.72;7.18;;;;;;;2.42;98.12;101723.19;4987915;28;20091;-81
2022/02/22 07:02:02;;;;;;;40.88;5.78;;;;;;;2.41;98.13;101723.28;4989341;28;20049;-77
2022/02/22 07:04:28;;;;;;;41.75;7.40;;;;;;;2.51;98.68;101712.47;4992329;28;20034;-79
2022/02/22 07:06:53;;;;;;;37.55;5.85;;;;;;;2.58;98.21;101719.81;5003284;28;20432;-80
2022/02/22 07:09:19;;;;;;;37.20;5.57;;;;;;;2.62;97.85;101719.59;5007775;28;20038;-79
2022/02/22 07:11:44;;;;;;;36.63;4.97;;;;;;;2.69;97.79;101720.06;4989046;28;20164;-79
2022/02/22 07:14:10;;;;;;;40.70;4.50;;;;;;;2.70;97.79;101716.63;4987325;28;20468;-80
2022/02/22 07:16:36;;;;;;;38.05;4.68;;;;;;;2.76;97.62;101729.09;4990738;28;20359;-80
2022/02/22 07:19:02;;;;;;;46.42;5.28;;;;;;;2.80;97.59;101722.88;5006309;28;20118;-79
2022/02/22 07:21:28;;;;;;;41.30;4.63;;;;;;;2.87;97.47;101721.66;5003051;28;20045;-79
2022/02/22 07:23:53;;;;;;;52.08;5.47;;;;;;;2.99;96.87;101732.13;4987559;28;20038;-79
2022/02/22 07:26:19;;;;;;;39.90;4.60;;;;;;;2.95;97.24;101723.78;4988700;28;20041;-79
2022/02/22 07:28:44;;;;;;;48.10;6.47;;;;;;;3.00;97.49;101731.25;4986632;28;20547;-80
2022/02/22 07:31:11;;;;;;;45.40;4.85;;;;;;;3.03;96.96;101734.47;4966843;28;20038;-79
2022/02/22 07:33:38;;;;;;;37.67;5.07;;;;;;;3.05;96.85;101729.22;4990749;28;20046;-80
2022/02/22 07:36:05;;;;;;;48.22;5.20;;;;;;;3.12;96.94;101718.56;4986419;28;20694;-80
2022/02/22 07:38:30;;;;;;;41.22;5.53;;;;;;;3.22;96.60;101726.59;4992025;28;20089;-80
2022/02/22 07:40:56;;;;;;;34.08;5.53;;;;;;;3.19;96.42;101720.81;5009806;28;20520;-80
2022/02/22 07:43:22;;;;;;;38.53;6.00;;;;;;;3.28;96.62;101726.22;4996617;28;20033;-80
2022/02/22 07:45:47;;;;;;;35.28;5.50;;;;;;;3.26;96.57;101722.94;4988442;28;20501;-79
2022/02/22 07:48:12;;;;;;;48.17;7.47;;;;;;;3.24;96.70;101718.78;4987035;28;20035;-79
2022/02/22 07:50:38;;;;;;;37.42;5.38;;;;;;;3.41;95.94;101715.28;5004508;28;20053;-79
2022/02/22 07:53:05;;;;;;;41.83;6.13;;;;;;;3.54;96.07;101721.34;5006925;28;20038;-80
2022/02/22 07:55:30;;;;;;;32.22;5.93;;;;;;;3.51;96.04;101719.78;4983513;28;20088;-78
2022/02/22 07:57:56;;;;;;;53.45;5.28;;;;;;;3.66;95.60;101720.66;4986823;28;20034;-80
2022/02/22 08:00:21;;;;;;;35.03;5.07;;;;;;;3.78;94.92;101720.84;4986753;28;20035;-79
2022/02/22 08:02:47;;;;;;;44.45;5.50;;;;;;;3.75;94.82;101721.03;4970026;28;20437;-78
2022/02/22 08:05:12;;;;;;;25.38;4.88;;;;;;;3.92;94.89;101712.34;5003385;28;20045;-80
2022/02/22 08:07:38;;;;;;;33.97;4.40;;;;;;;4.02;94.29;101714.28;5008776;28;20030;-80
2022/02/22 08:10:06;;;;;;;30.70;4.38;;;;;;;4.09;94.08;101715.56;5004812;28;20021;-80
2022/02/22 08:12:31;;;;;;;32.35;4.28;;;;;;;4.02;93.63;101709.16;5002573;28;20400;-78
2022/02/22 08:14:57;;;;;;;36.45;5.65;;;;;;;4.17;93.57;101704.03;4984963;28;20041;-80
2022/02/22 08:17:23;;;;;;;33.63;5.10;;;;;;;4.23;93.15;101712.16;4969105;28;20042;-79
2022/02/22 08:19:48;;;;;;;31.27;4.45;;;;;;;4.31;93.04;101704.00;4984692;28;20035;-81
2022/02/22 08:22:14;;;;;;;20.70;4.22;;;;;;;4.43;92.60;101697.31;4985412;28;20030;-79
2022/02/22 08:24:39;;;;;;;34.45;5.68;;;;;;;4.46;92.56;101695.38;5001671;28;20038;-79
2022/02/22 08:27:05;;;;;;;37.85;5.07;;;;;;;4.48;92.79;101687.56;4988712;28;20034;-80
2022/02/22 08:29:34;;;;;;;28.27;4.07;;;;;;;4.58;92.62;101680.97;4966757;28;20097;-79
2022/02/22 08:31:59;;;;;;;30.50;6.40;;;;;;;4.67;92.50;101687.25;4983318;28;20045;-80
2022/02/22 08:34:25;;;;;;;23.23;4.07;;;;;;;4.67;91.64;101682.09;4986900;28;20034;-80
2022/02/22 08:36:50;;;;;;;40.30;4.82;;;;;;;4.59;92.62;101680.00;4971007;28;20042;-80
2022/02/22 08:39:16;;;;;;;23.73;3.75;;;;;;;4.62;92.74;101676.44;4987105;28;20038;-80
2022/02/22 08:41:42;;;;;;;21.30;4.03;;;;;;;4.52;92.77;101678.78;5002196;28;20081;-80
2022/02/22 08:44:10;;;;;;;24.25;4.53;;;;;;;4.65;92.73;101676.25;5001847;28;20049;-80
2022/02/22 08:46:36;;;;;;;31.15;4.35;;;;;;;4.65;92.91;101674.53;4985609;28;20316;-81
2022/02/22 08:49:01;;;;;;;30.70;5.38;;;;;;;4.64;93.44;101674.59;4998970;28;20045;-79
2022/02/22 08:51:27;;;;;;;26.50;3.88;;;;;;;4.79;92.78;101668.50;4988526;28;20062;-78
2022/02/22 08:53:52;;;;;;;16.30;4.28;;;;;;;4.96;92.40;101669.19;5000081;28;20034;-80
2022/02/22 08:56:18;;;;;;;19.80;4.65;;;;;;;4.94;92.30;101660.75;4985731;28;20041;-80
2022/02/22 08:58:44;;;;;;;27.08;5.30;;;;;;;4.94;92.85;101665.88;4987565;28;20034;-80
2022/02/22 09:01:09;;;;;;;20.58;4.78;;;;;;;4.94;93.12;101663.31;4990610;28;20042;-79
2022/02/22 09:03:35;;;;;;;14.18;4.22;;;;;;;5.01;92.72;101651.69;5003812;28;20034;-80
2022/02/22 09:06:01;;;;;;;29.98;4.85;;;;;;;5.17;92.22;101651.53;4969608;28;20042;-79
2022/02/22 09:08:28;;;;;;;30.05;5.95;;;;;;;5.24;92.05;101647.66;5004481;28;20475;-78
2022/02/22 09:10:53;;;;;;;26.48;5.68;;;;;;;5.17;91.94;101649.78;5004675;28;20030;-79
2022/02/22 09:13:20;;;;;;;22.15;5.38;;;;;;;5.30;92.07;101657.53;4986323;28;20559;-80
2022/02/22 09:15:45;;;;;;;32.80;7.80;;;;;;;5.33;91.57;101641.91;4987632;28;20037;-79
2022/02/22 09:18:11;;;;;;;23.58;6.10;;;;;;;5.32;91.42;101642.00;4986140;28;20042;-80
2022/02/22 09:20:37;;;;;;;20.92;5.97;;;;;;;5.41;91.40;101631.94;4985065;28;20038;-79
2022/02/22 09:23:03;;;;;;;30.08;6.97;;;;;;;5.41;91.75;101633.69;4974145;28;20030;-80
2022/02/22 09:25:33;;;;;;;35.60;7.00;;;;;;;5.53;91.40;101624.31;4987607;28;20040;-80
2022/02/22 09:28:05;;;;;;;29.23;7.22;;;;;;;5.68;90.98;101625.03;4986581;28;20045;-81
2022/02/22 09:30:31;;;;;;;27.90;5.97;;;;;;;5.82;89.50;101617.19;4983447;28;20041;-78
2022/02/22 09:32:58;;;;;;;26.25;6.70;;;;;;;5.90;89.03;101601.25;4987976;28;20489;-79
2022/02/22 09:35:25;;;;;;;32.35;7.68;;;;;;;5.97;88.99;101602.47;4987423;28;20038;-80
2022/02/22 09:37:51;;;;;;;32.88;7.90;;;;;;;5.97;88.71;101597.31;4987805;28;20080;-79
2022/02/22 09:40:17;;;;;;;32.80;6.53;;;;;;;6.03;87.77;101600.31;5001217;28;20489;-79
2022/02/22 09:42:43;;;;;;;36.55;7.00;;;;;;;6.08;87.88;101601.72;4972053;28;20064;-79
2022/02/22 09:45:09;;;;;;;35.45;7.10;;;;;;;6.21;87.72;101600.75;4985828;28;20042;-80
2022/02/22 09:47:36;;;;;;;32.33;5.80;;;;;;;6.40;86.31;101595.16;4987939;28;20041;-78
2022/02/22 09:50:06;;;;;;;30.75;5.95;;;;;;;6.36;85.30;101596.28;4984295;28;20037;-80
2022/02/22 09:52:32;;;;;;;39.55;8.00;;;;;;;6.55;84.70;101594.97;5008439;28;20468;-80
2022/02/22 09:54:57;;;;;;;34.05;7.78;;;;;;;6.61;85.58;101586.78;4999602;28;20045;-79
2022/02/22 09:57:23;;;;;;;41.65;6.68;;;;;;;6.67;85.26;101586.34;5001548;28;20029;-80
2022/02/22 09:59:48;;;;;;;34.13;7.10;;;;;;;6.63;84.90;101587.53;4980776;28;20046;-80
2022/02/22 10:02:14;;;;;;;34.50;8.35;;;;;;;6.71;84.25;101576.66;5002117;28;20038;-79
2022/02/22 10:04:44;;;;;;;31.23;6.25;;;;;;;6.79;83.94;101575.13;4971929;28;20037;-80
2022/02/22 10:07:09;;;;;;;47.72;6.80;;;;;;;6.90;83.10;101576.13;4988861;28;20323;-79
2022/02/22 10:10:02;;;;;;;34.92;6.15;;;;;;;6.92;83.70;101575.06;4972751;28;20089;-79
2022/02/22 10:12:35;;;;;;;31.80;5.78;;;;;;;6.93;82.08;101573.31;4980971;28;20502;-78
2022/02/22 10:15:01;;;;;;;39.42;7.28;;;;;;;6.93;82.68;101570.72;4981273;28;20042;-80
2022/02/22 10:17:27;;;;;;;45.45;7.50;;;;;;;7.03;82.63;101571.69;4988404;28;20583;-78
2022/02/22 10:20:04;;;;;;;32.60;5.80;;;;;;;6.90;81.96;101571.78;4986683;28;20274;-79
2022/02/22 10:22:30;;;;;;;55.13;6.93;;;;;;;6.94;81.80;101562.06;4984332;28;20121;-80
2022/02/22 10:25:07;;;;;;;39.88;5.32;;;;;;;7.02;81.71;101572.63;4976549;28;20049;-79
2022/02/22 10:27:42;;;;;;;33.72;5.55;;;;;;;7.00;81.62;101570.16;4981358;28;20030;-80
2022/02/22 10:30:38;;;;;;;35.92;5.32;;;;;;;7.01;81.29;101566.66;4996928;28;20030;-80
2022/02/22 10:33:18;;;;;;;38.00;4.63;;;;;;;7.15;80.27;101588.81;4968918;28;20333;-80
2022/02/22 10:35:51;;;;;;;37.78;5.97;;;;;;;7.22;80.01;101594.38;4986063;28;20396;-81
2022/02/22 10:38:36;;;;;;;28.70;5.20;;;;;;;7.21;79.79;101600.44;4983612;28;20453;-80
2022/02/22 10:41:05;;;;;;;29.48;4.68;;;;;;;7.24;79.93;101604.56;4981734;28;20519;-80
2022/02/22 10:43:34;;;;;;;41.47;7.10;;;;;;;7.13;79.80;101582.97;5000471;28;20041;-80
2022/02/22 10:46:02;;;;;;;46.67;4.88;;;;;;;7.12;80.47;101589.06;4982445;28;20189;-80
2022/02/22 10:48:42;;;;;;;36.92;6.25;;;;;;;7.18;80.81;101593.78;5003645;28;20504;-80
2022/02/22 10:51:13;;;;;;;34.83;5.82;;;;;;;7.00;81.46;101587.41;4986866;28;20046;-80
2022/02/22 10:53:44;;;;;;;24.23;4.88;;;;;;;6.92;82.48;101582.00;5003513;28;20069;-80
2022/02/22 10:56:13;;;;;;;42.20;4.90;;;;;;;6.95;83.15;101580.00;4980798;28;20042;-80
2022/02/22 10:58:40;;;;;;;34.60;4.90;;;;;;;6.93;83.01;101556.09;5006039;28;20034;-80
2022/02/22 11:01:12;;;;;;;35.90;5.15;;;;;;;6.94;82.26;101549.19;4986515;28;20130;-80
2022/02/22 11:03:38;;;;;;;33.25;4.82;;;;;;;7.01;82.13;101540.88;4986482;28;20041;-80
2022/02/22 11:06:03;;;;;;;29.73;6.95;;;;;;;7.08;81.61;101548.13;4984976;28;20034;-80
2022/02/22 11:08:31;;;;;;;39.38;4.07;;;;;;;7.18;80.59;101533.63;4981945;28;20045;-80
2022/02/22 11:11:32;;;;;;;34.95;4.60;;;;;;;7.22;80.66;101527.28;4986712;28;20034;-80
2022/02/22 11:14:01;;;;;;;32.38;4.25;;;;;;;7.27;79.95;101514.03;4958689;28;20525;-79
2022/02/22 11:16:46;;;;;;;25.40;4.75;;;;;;;7.39;79.66;101519.09;4981334;28;20039;-80
2022/02/22 11:19:20;;;;;;;26.58;3.58;;;;;;;7.51;78.23;101525.06;4964386;28;20038;-80
2022/02/22 11:21:49;;;;;;;33.90;5.95;;;;;;;7.43;79.12;101511.94;4999283;28;20474;-80